sensor_id;sensor_type;location;lat;lon;timestamp;temperature;humidity
23991;DHT22;12205;50.600;4.608;2023-08-12T00:02:36;21.70;99.90
23991;DHT22;12205;50.600;4.608;2023-08-12T00:05:04;21.70;99.90
23991;DHT22;12205;50.600;4.608;2023-08-12T00:07:32;21.70;99.90
23991;DHT22;12205;50.600;4.608;2023-08-12T00:09:59;21.60;99.90
23991;DHT22;12205;50.600;4.608;2023-08-12T00:12:29;21.60;99.90
23991;DHT22;12205;50.600;4.608;2023-08-12T00:14:56;21.60;99.90
23991;DHT22;12205;50.600;4.608;2023-08-12T00:17:23;21.60;99.90
23991;DHT22;12205;50.600;4.608;2023-08-12T00:19:52;21.60;99.90
23991;DHT22;12205;50.600;4.608;2023-08-12T00:22:19;21.50;99.90
23991;DHT22;12205;50.600;4.608;2023-08-12T00:24:46;21.50;99.90
23991;DHT22;12205;50.600;4.608;2023-08-12T00:27:13;21.50;99.90
23991;DHT22;12205;50.600;4.608;2023-08-12T00:29:41;21.50;99.90
23991;DHT22;12205;50.600;4.608;2023-08-12T00:32:08;21.50;99.90
23991;DHT22;12205;50.600;4.608;2023-08-12T00:34:36;21.50;99.90
23991;DHT22;12205;50.600;4.608;2023-08-12T00:37:05;21.50;99.90
23991;DHT22;12205;50.600;4.608;2023-08-12T00:39:32;21.50;99.90
23991;DHT22;12205;50.600;4.608;2023-08-12T00:41:59;21.50;99.90
23991;DHT22;12205;50.600;4.608;2023-08-12T00:44:27;21.40;99.90
23991;DHT22;12205;50.600;4.608;2023-08-12T00:46:54;21.40;99.90
23991;DHT22;12205;50.600;4.608;2023-08-12T00:49:24;21.40;99.90
23991;DHT22;12205;50.600;4.608;2023-08-12T00:51:53;21.40;99.90
23991;DHT22;12205;50.600;4.608;2023-08-12T00:54:26;21.40;99.90
23991;DHT22;12205;50.600;4.608;2023-08-12T00:56:54;21.50;99.90
23991;DHT22;12205;50.600;4.608;2023-08-12T00:59:22;21.50;99.90
23991;DHT22;12205;50.600;4.608;2023-08-12T01:01:50;21.40;99.90
23991;DHT22;12205;50.600;4.608;2023-08-12T01:04:17;21.50;99.90
23991;DHT22;12205;50.600;4.608;2023-08-12T01:06:44;21.50;99.90
23991;DHT22;12205;50.600;4.608;2023-08-12T01:09:11;21.50;99.90
23991;DHT22;12205;50.600;4.608;2023-08-12T01:11:48;21.50;99.90
23991;DHT22;12205;50.600;4.608;2023-08-12T01:14:24;21.50;99.90
23991;DHT22;12205;50.600;4.608;2023-08-12T01:16:58;21.50;99.90
23991;DHT22;12205;50.600;4.608;2023-08-12T01:19:32;21.50;99.90
23991;DHT22;12205;50.600;4.608;2023-08-12T01:22:03;21.50;99.90
23991;DHT22;12205;50.600;4.608;2023-08-12T01:24:38;21.60;99.90
23991;DHT22;12205;50.600;4.608;2023-08-12T01:27:07;21.60;99.90
23991;DHT22;12205;50.600;4.608;2023-08-12T01:29:39;21.60;99.90
23991;DHT22;12205;50.600;4.608;2023-08-12T01:32:14;21.60;99.90
23991;DHT22;12205;50.600;4.608;2023-08-12T01:34:53;21.60;99.90
23991;DHT22;12205;50.600;4.608;2023-08-12T01:37:29;21.60;99.90
23991;DHT22;12205;50.600;4.608;2023-08-12T01:40:01;21.70;99.90
23991;DHT22;12205;50.600;4.608;2023-08-12T01:42:29;21.60;99.90
23991;DHT22;12205;50.600;4.608;2023-08-12T01:44:58;21.60;99.90
23991;DHT22;12205;50.600;4.608;2023-08-12T01:47:26;21.60;99.90
23991;DHT22;12205;50.600;4.608;2023-08-12T01:49:54;21.60;99.90
23991;DHT22;12205;50.600;4.608;2023-08-12T01:52:23;21.70;99.90
23991;DHT22;12205;50.600;4.608;2023-08-12T01:54:51;21.60;99.90
23991;DHT22;12205;50.600;4.608;2023-08-12T01:57:19;21.60;99.90
23991;DHT22;12205;50.600;4.608;2023-08-12T01:59:46;21.70;99.90
23991;DHT22;12205;50.600;4.608;2023-08-12T02:02:13;21.70;99.90
23991;DHT22;12205;50.600;4.608;2023-08-12T02:04:40;21.70;99.90
23991;DHT22;12205;50.600;4.608;2023-08-12T02:07:08;21.70;99.90
23991;DHT22;12205;50.600;4.608;2023-08-12T02:09:36;21.70;99.90
23991;DHT22;12205;50.600;4.608;2023-08-12T02:12:03;21.70;99.90
23991;DHT22;12205;50.600;4.608;2023-08-12T02:14:32;21.70;99.90
23991;DHT22;12205;50.600;4.608;2023-08-12T02:16:59;21.70;99.90
23991;DHT22;12205;50.600;4.608;2023-08-12T02:19:27;21.70;99.90
23991;DHT22;12205;50.600;4.608;2023-08-12T02:21:54;21.70;99.90
23991;DHT22;12205;50.600;4.608;2023-08-12T02:24:21;21.70;99.90
23991;DHT22;12205;50.600;4.608;2023-08-12T02:26:48;21.70;99.90
23991;DHT22;12205;50.600;4.608;2023-08-12T02:29:15;21.70;99.90
23991;DHT22;12205;50.600;4.608;2023-08-12T02:31:43;21.70;99.90
23991;DHT22;12205;50.600;4.608;2023-08-12T02:34:10;21.70;99.90
23991;DHT22;12205;50.600;4.608;2023-08-12T02:36:38;21.70;99.90
23991;DHT22;12205;50.600;4.608;2023-08-12T02:39:05;21.70;99.90
23991;DHT22;12205;50.600;4.608;2023-08-12T02:41:32;21.70;99.90
23991;DHT22;12205;50.600;4.608;2023-08-12T02:44:00;21.70;99.90
23991;DHT22;12205;50.600;4.608;2023-08-12T02:46:27;21.70;99.90
23991;DHT22;12205;50.600;4.608;2023-08-12T02:48:55;21.70;99.90
23991;DHT22;12205;50.600;4.608;2023-08-12T02:51:22;21.60;99.90
23991;DHT22;12205;50.600;4.608;2023-08-12T02:53:49;21.60;99.90
23991;DHT22;12205;50.600;4.608;2023-08-12T02:56:16;21.60;99.90
23991;DHT22;12205;50.600;4.608;2023-08-12T02:58:44;21.60;99.90
23991;DHT22;12205;50.600;4.608;2023-08-12T03:01:11;21.60;99.90
23991;DHT22;12205;50.600;4.608;2023-08-12T03:03:38;21.50;99.90
23991;DHT22;12205;50.600;4.608;2023-08-12T03:06:06;21.50;99.90
23991;DHT22;12205;50.600;4.608;2023-08-12T03:08:33;21.50;99.90
23991;DHT22;12205;50.600;4.608;2023-08-12T03:11:01;21.50;99.90
23991;DHT22;12205;50.600;4.608;2023-08-12T03:13:30;21.50;99.90
23991;DHT22;12205;50.600;4.608;2023-08-12T03:15:58;21.40;99.90
23991;DHT22;12205;50.600;4.608;2023-08-12T03:18:25;21.40;99.90
23991;DHT22;12205;50.600;4.608;2023-08-12T03:20:52;21.40;99.90
23991;DHT22;12205;50.600;4.608;2023-08-12T03:23:24;21.40;99.90
23991;DHT22;12205;50.600;4.608;2023-08-12T03:25:51;21.50;99.90
23991;DHT22;12205;50.600;4.608;2023-08-12T03:28:19;21.40;99.90
23991;DHT22;12205;50.600;4.608;2023-08-12T03:30:50;21.40;99.90
23991;DHT22;12205;50.600;4.608;2023-08-12T03:33:20;21.40;99.90
23991;DHT22;12205;50.600;4.608;2023-08-12T03:35:48;21.40;99.90
23991;DHT22;12205;50.600;4.608;2023-08-12T03:38:16;21.40;99.90
23991;DHT22;12205;50.600;4.608;2023-08-12T03:40:46;21.40;99.90
23991;DHT22;12205;50.600;4.608;2023-08-12T03:43:16;21.40;99.90
23991;DHT22;12205;50.600;4.608;2023-08-12T03:45:45;21.30;99.90
23991;DHT22;12205;50.600;4.608;2023-08-12T03:48:14;21.30;99.90
23991;DHT22;12205;50.600;4.608;2023-08-12T03:50:42;21.30;99.90
23991;DHT22;12205;50.600;4.608;2023-08-12T03:53:11;21.30;99.90
23991;DHT22;12205;50.600;4.608;2023-08-12T03:55:39;21.30;99.90
23991;DHT22;12205;50.600;4.608;2023-08-12T03:58:09;21.30;99.90
23991;DHT22;12205;50.600;4.608;2023-08-12T04:00:40;21.30;99.90
23991;DHT22;12205;50.600;4.608;2023-08-12T04:03:09;21.20;99.90
23991;DHT22;12205;50.600;4.608;2023-08-12T04:05:36;21.20;99.90
23991;DHT22;12205;50.600;4.608;2023-08-12T04:08:04;21.20;99.90
23991;DHT22;12205;50.600;4.608;2023-08-12T04:10:31;21.20;99.90
23991;DHT22;12205;50.600;4.608;2023-08-12T04:12:58;21.20;99.90
23991;DHT22;12205;50.600;4.608;2023-08-12T04:15:26;21.10;99.90
23991;DHT22;12205;50.600;4.608;2023-08-12T04:17:54;21.10;99.90
23991;DHT22;12205;50.600;4.608;2023-08-12T04:20:21;21.10;99.90
23991;DHT22;12205;50.600;4.608;2023-08-12T04:22:49;21.10;99.90
23991;DHT22;12205;50.600;4.608;2023-08-12T04:25:16;21.10;99.90
23991;DHT22;12205;50.600;4.608;2023-08-12T04:27:43;21.00;99.90
23991;DHT22;12205;50.600;4.608;2023-08-12T04:30:13;20.90;99.90
23991;DHT22;12205;50.600;4.608;2023-08-12T04:32:42;20.90;99.90
23991;DHT22;12205;50.600;4.608;2023-08-12T04:35:09;20.80;99.90
23991;DHT22;12205;50.600;4.608;2023-08-12T04:37:37;20.80;99.90
23991;DHT22;12205;50.600;4.608;2023-08-12T04:40:07;20.70;99.90
23991;DHT22;12205;50.600;4.608;2023-08-12T04:42:35;20.60;99.90
23991;DHT22;12205;50.600;4.608;2023-08-12T04:45:04;20.60;99.90
23991;DHT22;12205;50.600;4.608;2023-08-12T04:47:32;20.60;99.90
23991;DHT22;12205;50.600;4.608;2023-08-12T04:50:01;20.60;99.90
23991;DHT22;12205;50.600;4.608;2023-08-12T04:52:30;20.60;99.90
23991;DHT22;12205;50.600;4.608;2023-08-12T04:54:57;20.60;99.90
23991;DHT22;12205;50.600;4.608;2023-08-12T04:57:26;20.50;99.90
23991;DHT22;12205;50.600;4.608;2023-08-12T04:59:54;20.50;99.90
23991;DHT22;12205;50.600;4.608;2023-08-12T05:02:21;20.50;99.90
23991;DHT22;12205;50.600;4.608;2023-08-12T05:04:49;20.50;99.90
23991;DHT22;12205;50.600;4.608;2023-08-12T05:07:18;20.60;99.90
23991;DHT22;12205;50.600;4.608;2023-08-12T05:09:45;20.60;99.90
23991;DHT22;12205;50.600;4.608;2023-08-12T05:12:14;20.50;99.90
23991;DHT22;12205;50.600;4.608;2023-08-12T05:14:41;20.50;99.90
23991;DHT22;12205;50.600;4.608;2023-08-12T05:17:09;20.50;99.90
23991;DHT22;12205;50.600;4.608;2023-08-12T05:19:36;20.40;99.90
23991;DHT22;12205;50.600;4.608;2023-08-12T05:22:03;20.40;99.90
23991;DHT22;12205;50.600;4.608;2023-08-12T05:24:32;20.30;99.90
23991;DHT22;12205;50.600;4.608;2023-08-12T05:26:59;20.30;99.90
23991;DHT22;12205;50.600;4.608;2023-08-12T05:29:26;20.20;99.90
23991;DHT22;12205;50.600;4.608;2023-08-12T05:31:53;20.20;99.90
23991;DHT22;12205;50.600;4.608;2023-08-12T05:34:20;20.20;99.90
23991;DHT22;12205;50.600;4.608;2023-08-12T05:36:47;20.20;99.90
23991;DHT22;12205;50.600;4.608;2023-08-12T05:39:14;20.30;99.90
23991;DHT22;12205;50.600;4.608;2023-08-12T05:41:43;20.30;99.90
23991;DHT22;12205;50.600;4.608;2023-08-12T05:44:10;20.30;99.90
23991;DHT22;12205;50.600;4.608;2023-08-12T05:46:37;20.40;99.90
23991;DHT22;12205;50.600;4.608;2023-08-12T05:49:04;20.40;99.90
23991;DHT22;12205;50.600;4.608;2023-08-12T05:51:31;20.40;99.90
23991;DHT22;12205;50.600;4.608;2023-08-12T05:53:58;20.40;99.90
23991;DHT22;12205;50.600;4.608;2023-08-12T05:56:25;20.40;99.90
23991;DHT22;12205;50.600;4.608;2023-08-12T05:58:54;20.40;99.90
23991;DHT22;12205;50.600;4.608;2023-08-12T06:01:21;20.40;99.90
23991;DHT22;12205;50.600;4.608;2023-08-12T06:03:48;20.50;99.90
23991;DHT22;12205;50.600;4.608;2023-08-12T06:06:15;20.50;99.90
23991;DHT22;12205;50.600;4.608;2023-08-12T06:08:42;20.50;99.90
23991;DHT22;12205;50.600;4.608;2023-08-12T06:11:09;20.40;99.90
23991;DHT22;12205;50.600;4.608;2023-08-12T06:13:36;20.50;99.90
23991;DHT22;12205;50.600;4.608;2023-08-12T06:16:05;20.50;99.90
23991;DHT22;12205;50.600;4.608;2023-08-12T06:18:32;20.50;99.90
23991;DHT22;12205;50.600;4.608;2023-08-12T06:20:59;20.50;99.90
23991;DHT22;12205;50.600;4.608;2023-08-12T06:23:26;20.50;99.90
23991;DHT22;12205;50.600;4.608;2023-08-12T06:25:55;20.50;99.90
23991;DHT22;12205;50.600;4.608;2023-08-12T06:28:22;20.50;99.90
23991;DHT22;12205;50.600;4.608;2023-08-12T06:30:49;20.60;99.90
23991;DHT22;12205;50.600;4.608;2023-08-12T06:33:18;20.60;99.90
23991;DHT22;12205;50.600;4.608;2023-08-12T06:35:45;20.60;99.90
23991;DHT22;12205;50.600;4.608;2023-08-12T06:38:12;20.60;99.90
23991;DHT22;12205;50.600;4.608;2023-08-12T06:40:39;20.60;99.90
23991;DHT22;12205;50.600;4.608;2023-08-12T06:43:06;20.60;99.90
23991;DHT22;12205;50.600;4.608;2023-08-12T06:45:34;20.60;99.90
23991;DHT22;12205;50.600;4.608;2023-08-12T06:48:01;20.50;99.90
23991;DHT22;12205;50.600;4.608;2023-08-12T06:50:30;20.40;99.90
23991;DHT22;12205;50.600;4.608;2023-08-12T06:52:58;20.40;99.90
23991;DHT22;12205;50.600;4.608;2023-08-12T06:55:25;20.50;99.90
23991;DHT22;12205;50.600;4.608;2023-08-12T06:57:53;20.50;99.90
23991;DHT22;12205;50.600;4.608;2023-08-12T07:00:20;20.40;99.90
23991;DHT22;12205;50.600;4.608;2023-08-12T07:02:47;20.50;99.90
23991;DHT22;12205;50.600;4.608;2023-08-12T07:05:14;20.50;99.90
23991;DHT22;12205;50.600;4.608;2023-08-12T07:07:43;20.60;99.90
23991;DHT22;12205;50.600;4.608;2023-08-12T07:10:10;20.70;99.90
23991;DHT22;12205;50.600;4.608;2023-08-12T07:12:37;20.80;99.90
23991;DHT22;12205;50.600;4.608;2023-08-12T07:15:05;20.90;99.90
23991;DHT22;12205;50.600;4.608;2023-08-12T07:17:33;20.90;99.90
23991;DHT22;12205;50.600;4.608;2023-08-12T07:20:00;21.00;99.90
23991;DHT22;12205;50.600;4.608;2023-08-12T07:22:29;21.10;99.90
23991;DHT22;12205;50.600;4.608;2023-08-12T07:24:58;21.10;99.90
23991;DHT22;12205;50.600;4.608;2023-08-12T07:27:25;21.10;99.90
23991;DHT22;12205;50.600;4.608;2023-08-12T07:29:52;21.20;99.90
23991;DHT22;12205;50.600;4.608;2023-08-12T07:32:20;21.20;99.90
23991;DHT22;12205;50.600;4.608;2023-08-12T07:34:48;21.20;99.90
23991;DHT22;12205;50.600;4.608;2023-08-12T07:37:15;21.20;99.90
23991;DHT22;12205;50.600;4.608;2023-08-12T07:39:42;21.20;99.90
23991;DHT22;12205;50.600;4.608;2023-08-12T07:42:10;21.20;99.90
23991;DHT22;12205;50.600;4.608;2023-08-12T07:44:37;21.20;99.90
23991;DHT22;12205;50.600;4.608;2023-08-12T07:47:04;21.20;99.90
23991;DHT22;12205;50.600;4.608;2023-08-12T07:49:32;21.20;99.90
23991;DHT22;12205;50.600;4.608;2023-08-12T07:51:59;21.20;99.90
23991;DHT22;12205;50.600;4.608;2023-08-12T07:54:26;21.10;99.90
23991;DHT22;12205;50.600;4.608;2023-08-12T07:56:53;21.20;99.90
23991;DHT22;12205;50.600;4.608;2023-08-12T07:59:21;21.20;99.90
23991;DHT22;12205;50.600;4.608;2023-08-12T08:01:48;21.10;99.90
23991;DHT22;12205;50.600;4.608;2023-08-12T08:04:16;21.20;99.90
23991;DHT22;12205;50.600;4.608;2023-08-12T08:06:43;21.20;99.90
23991;DHT22;12205;50.600;4.608;2023-08-12T08:09:10;21.20;99.90
23991;DHT22;12205;50.600;4.608;2023-08-12T08:11:37;21.20;99.90
23991;DHT22;12205;50.600;4.608;2023-08-12T08:14:04;21.20;99.90
23991;DHT22;12205;50.600;4.608;2023-08-12T08:16:33;21.30;99.90
23991;DHT22;12205;50.600;4.608;2023-08-12T08:19:00;21.30;99.90
23991;DHT22;12205;50.600;4.608;2023-08-12T08:21:27;21.10;99.90
23991;DHT22;12205;50.600;4.608;2023-08-12T08:23:55;21.10;99.90
23991;DHT22;12205;50.600;4.608;2023-08-12T08:26:22;21.00;99.90
23991;DHT22;12205;50.600;4.608;2023-08-12T08:28:49;20.80;99.90
23991;DHT22;12205;50.600;4.608;2023-08-12T08:31:16;20.80;99.90
23991;DHT22;12205;50.600;4.608;2023-08-12T08:33:44;20.70;99.90
23991;DHT22;12205;50.600;4.608;2023-08-12T08:36:11;20.60;99.90
23991;DHT22;12205;50.600;4.608;2023-08-12T08:38:38;20.60;99.90
23991;DHT22;12205;50.600;4.608;2023-08-12T08:41:06;20.40;99.90
23991;DHT22;12205;50.600;4.608;2023-08-12T08:43:36;20.30;99.90
23991;DHT22;12205;50.600;4.608;2023-08-12T08:46:07;20.30;99.90
23991;DHT22;12205;50.600;4.608;2023-08-12T08:48:35;20.30;99.90
23991;DHT22;12205;50.600;4.608;2023-08-12T08:51:05;20.30;99.90
23991;DHT22;12205;50.600;4.608;2023-08-12T08:53:37;20.40;99.90
23991;DHT22;12205;50.600;4.608;2023-08-12T08:56:05;20.40;99.90
23991;DHT22;12205;50.600;4.608;2023-08-12T08:58:33;20.40;99.90
23991;DHT22;12205;50.600;4.608;2023-08-12T09:01:01;20.40;99.90
23991;DHT22;12205;50.600;4.608;2023-08-12T09:03:29;20.40;99.90
23991;DHT22;12205;50.600;4.608;2023-08-12T09:05:57;20.40;99.90
23991;DHT22;12205;50.600;4.608;2023-08-12T09:08:27;20.40;99.90
23991;DHT22;12205;50.600;4.608;2023-08-12T09:10:57;20.40;99.90
23991;DHT22;12205;50.600;4.608;2023-08-12T09:13:26;20.50;99.90
23991;DHT22;12205;50.600;4.608;2023-08-12T09:15:54;20.60;99.90
23991;DHT22;12205;50.600;4.608;2023-08-12T09:18:21;20.80;99.90
23991;DHT22;12205;50.600;4.608;2023-08-12T09:20:49;20.90;99.90
23991;DHT22;12205;50.600;4.608;2023-08-12T09:23:17;20.90;99.90
23991;DHT22;12205;50.600;4.608;2023-08-12T09:25:46;20.90;99.90
23991;DHT22;12205;50.600;4.608;2023-08-12T09:28:13;21.00;99.90
23991;DHT22;12205;50.600;4.608;2023-08-12T09:30:41;21.00;99.90
23991;DHT22;12205;50.600;4.608;2023-08-12T09:33:08;21.10;99.90
23991;DHT22;12205;50.600;4.608;2023-08-12T09:35:37;21.10;99.90
23991;DHT22;12205;50.600;4.608;2023-08-12T09:38:10;21.10;99.90
23991;DHT22;12205;50.600;4.608;2023-08-12T09:40:38;21.00;99.90
23991;DHT22;12205;50.600;4.608;2023-08-12T09:43:08;21.20;99.90
23991;DHT22;12205;50.600;4.608;2023-08-12T09:45:37;21.30;99.90
23991;DHT22;12205;50.600;4.608;2023-08-12T09:48:05;21.30;99.90
23991;DHT22;12205;50.600;4.608;2023-08-12T09:50:34;21.30;99.90
23991;DHT22;12205;50.600;4.608;2023-08-12T09:53:03;21.30;99.90
23991;DHT22;12205;50.600;4.608;2023-08-12T09:55:32;21.40;99.90
23991;DHT22;12205;50.600;4.608;2023-08-12T09:58:07;21.50;99.90
23991;DHT22;12205;50.600;4.608;2023-08-12T10:00:37;21.60;99.90
23991;DHT22;12205;50.600;4.608;2023-08-12T10:03:07;21.70;99.90
23991;DHT22;12205;50.600;4.608;2023-08-12T10:05:35;21.70;99.90
23991;DHT22;12205;50.600;4.608;2023-08-12T10:08:04;21.60;99.90
23991;DHT22;12205;50.600;4.608;2023-08-12T10:10:35;21.50;99.90
23991;DHT22;12205;50.600;4.608;2023-08-12T10:13:03;21.40;99.90
23991;DHT22;12205;50.600;4.608;2023-08-12T10:15:34;21.20;99.90
23991;DHT22;12205;50.600;4.608;2023-08-12T10:18:03;21.10;99.90
23991;DHT22;12205;50.600;4.608;2023-08-12T10:20:32;21.10;99.90
23991;DHT22;12205;50.600;4.608;2023-08-12T10:23:02;21.10;99.90
23991;DHT22;12205;50.600;4.608;2023-08-12T10:25:32;21.00;99.90
23991;DHT22;12205;50.600;4.608;2023-08-12T10:28:00;20.90;99.90
23991;DHT22;12205;50.600;4.608;2023-08-12T10:30:29;20.90;99.90
23991;DHT22;12205;50.600;4.608;2023-08-12T10:32:59;20.80;99.90
23991;DHT22;12205;50.600;4.608;2023-08-12T10:35:41;20.80;99.90
23991;DHT22;12205;50.600;4.608;2023-08-12T10:38:09;20.90;99.90
23991;DHT22;12205;50.600;4.608;2023-08-12T10:40:38;21.10;99.90
23991;DHT22;12205;50.600;4.608;2023-08-12T10:43:06;21.20;99.90
23991;DHT22;12205;50.600;4.608;2023-08-12T10:45:47;21.30;99.90
23991;DHT22;12205;50.600;4.608;2023-08-12T10:48:22;21.40;99.90
23991;DHT22;12205;50.600;4.608;2023-08-12T10:50:53;21.60;99.90
23991;DHT22;12205;50.600;4.608;2023-08-12T10:53:25;21.60;99.90
23991;DHT22;12205;50.600;4.608;2023-08-12T10:55:56;21.60;99.90
23991;DHT22;12205;50.600;4.608;2023-08-12T10:58:27;21.70;99.90
23991;DHT22;12205;50.600;4.608;2023-08-12T11:00:56;21.70;99.90
23991;DHT22;12205;50.600;4.608;2023-08-12T11:03:25;21.90;99.90
23991;DHT22;12205;50.600;4.608;2023-08-12T11:05:53;21.80;99.90
23991;DHT22;12205;50.600;4.608;2023-08-12T11:08:26;21.90;99.90
23991;DHT22;12205;50.600;4.608;2023-08-12T11:10:55;22.10;99.90
23991;DHT22;12205;50.600;4.608;2023-08-12T11:13:27;22.10;99.90
23991;DHT22;12205;50.600;4.608;2023-08-12T11:16:06;22.10;99.90
23991;DHT22;12205;50.600;4.608;2023-08-12T11:18:36;22.30;99.90
23991;DHT22;12205;50.600;4.608;2023-08-12T11:21:03;22.30;99.90
23991;DHT22;12205;50.600;4.608;2023-08-12T11:23:32;22.40;99.90
23991;DHT22;12205;50.600;4.608;2023-08-12T11:26:00;22.50;99.90
23991;DHT22;12205;50.600;4.608;2023-08-12T11:28:29;22.60;99.90
23991;DHT22;12205;50.600;4.608;2023-08-12T11:30:57;22.80;99.90
23991;DHT22;12205;50.600;4.608;2023-08-12T11:33:24;22.90;99.90
23991;DHT22;12205;50.600;4.608;2023-08-12T11:35:53;23.00;99.90
23991;DHT22;12205;50.600;4.608;2023-08-12T11:38:20;23.00;99.90
23991;DHT22;12205;50.600;4.608;2023-08-12T11:40:47;22.90;99.90
23991;DHT22;12205;50.600;4.608;2023-08-12T11:43:21;23.00;99.90
23991;DHT22;12205;50.600;4.608;2023-08-12T11:45:48;23.00;99.90
23991;DHT22;12205;50.600;4.608;2023-08-12T11:48:16;23.10;99.90
23991;DHT22;12205;50.600;4.608;2023-08-12T11:50:43;23.20;99.90
23991;DHT22;12205;50.600;4.608;2023-08-12T11:53:11;23.20;99.90
23991;DHT22;12205;50.600;4.608;2023-08-12T11:55:39;23.10;99.90
23991;DHT22;12205;50.600;4.608;2023-08-12T11:58:06;23.10;99.90
23991;DHT22;12205;50.600;4.608;2023-08-12T12:00:33;23.30;99.90
23991;DHT22;12205;50.600;4.608;2023-08-12T12:03:01;23.20;99.90
23991;DHT22;12205;50.600;4.608;2023-08-12T12:05:29;23.60;99.90
23991;DHT22;12205;50.600;4.608;2023-08-12T12:07:58;23.80;99.90
23991;DHT22;12205;50.600;4.608;2023-08-12T12:10:29;24.00;99.90
23991;DHT22;12205;50.600;4.608;2023-08-12T12:12:59;23.70;99.90
23991;DHT22;12205;50.600;4.608;2023-08-12T12:15:27;24.00;99.90
23991;DHT22;12205;50.600;4.608;2023-08-12T12:17:55;24.20;99.90
23991;DHT22;12205;50.600;4.608;2023-08-12T12:20:22;24.60;99.90
23991;DHT22;12205;50.600;4.608;2023-08-12T12:22:49;24.80;99.90
23991;DHT22;12205;50.600;4.608;2023-08-12T12:25:17;25.00;99.90
23991;DHT22;12205;50.600;4.608;2023-08-12T12:27:47;25.40;99.90
23991;DHT22;12205;50.600;4.608;2023-08-12T12:30:15;25.60;99.90
23991;DHT22;12205;50.600;4.608;2023-08-12T12:32:43;25.80;99.90
23991;DHT22;12205;50.600;4.608;2023-08-12T12:35:10;26.10;99.90
23991;DHT22;12205;50.600;4.608;2023-08-12T12:37:37;26.10;99.90
23991;DHT22;12205;50.600;4.608;2023-08-12T12:40:05;26.30;99.90
23991;DHT22;12205;50.600;4.608;2023-08-12T12:42:33;26.50;99.90
23991;DHT22;12205;50.600;4.608;2023-08-12T12:45:02;26.80;99.90
23991;DHT22;12205;50.600;4.608;2023-08-12T12:47:30;26.70;99.90
23991;DHT22;12205;50.600;4.608;2023-08-12T12:49:57;26.90;99.90
23991;DHT22;12205;50.600;4.608;2023-08-12T12:52:24;27.30;99.90
23991;DHT22;12205;50.600;4.608;2023-08-12T12:54:51;27.50;99.90
23991;DHT22;12205;50.600;4.608;2023-08-12T12:57:18;27.60;99.90
23991;DHT22;12205;50.600;4.608;2023-08-12T12:59:45;27.80;99.90
23991;DHT22;12205;50.600;4.608;2023-08-12T13:02:13;28.20;99.90
23991;DHT22;12205;50.600;4.608;2023-08-12T13:04:40;28.50;99.90
23991;DHT22;12205;50.600;4.608;2023-08-12T13:07:08;29.00;99.90
23991;DHT22;12205;50.600;4.608;2023-08-12T13:09:35;29.20;99.90
23991;DHT22;12205;50.600;4.608;2023-08-12T13:12:02;28.60;99.90
23991;DHT22;12205;50.600;4.608;2023-08-12T13:14:30;28.00;99.90
23991;DHT22;12205;50.600;4.608;2023-08-12T13:16:57;28.30;99.90
23991;DHT22;12205;50.600;4.608;2023-08-12T13:19:26;28.50;99.90
23991;DHT22;12205;50.600;4.608;2023-08-12T13:21:53;28.60;99.90
23991;DHT22;12205;50.600;4.608;2023-08-12T13:24:20;28.80;99.90
23991;DHT22;12205;50.600;4.608;2023-08-12T13:26:47;28.10;99.90
23991;DHT22;12205;50.600;4.608;2023-08-12T13:29:14;27.60;99.90
23991;DHT22;12205;50.600;4.608;2023-08-12T13:31:41;27.40;99.90
23991;DHT22;12205;50.600;4.608;2023-08-12T13:34:08;27.40;99.90
23991;DHT22;12205;50.600;4.608;2023-08-12T13:36:36;27.70;99.90
23991;DHT22;12205;50.600;4.608;2023-08-12T13:39:04;28.10;99.90
23991;DHT22;12205;50.600;4.608;2023-08-12T13:41:31;28.70;99.90
23991;DHT22;12205;50.600;4.608;2023-08-12T13:43:58;28.90;99.90
23991;DHT22;12205;50.600;4.608;2023-08-12T13:46:25;29.00;99.90
23991;DHT22;12205;50.600;4.608;2023-08-12T13:48:52;29.00;99.90
23991;DHT22;12205;50.600;4.608;2023-08-12T13:51:20;29.20;99.90
23991;DHT22;12205;50.600;4.608;2023-08-12T13:53:48;29.20;99.90
23991;DHT22;12205;50.600;4.608;2023-08-12T13:56:16;28.90;99.90
23991;DHT22;12205;50.600;4.608;2023-08-12T13:58:43;28.70;99.90
23991;DHT22;12205;50.600;4.608;2023-08-12T14:01:10;29.00;99.90
23991;DHT22;12205;50.600;4.608;2023-08-12T14:03:37;29.10;99.90
23991;DHT22;12205;50.600;4.608;2023-08-12T14:06:04;29.60;99.90
23991;DHT22;12205;50.600;4.608;2023-08-12T14:08:32;30.00;99.90
23991;DHT22;12205;50.600;4.608;2023-08-12T14:11:00;30.30;99.90
23991;DHT22;12205;50.600;4.608;2023-08-12T14:13:27;30.50;99.90
23991;DHT22;12205;50.600;4.608;2023-08-12T14:15:54;30.70;99.90
23991;DHT22;12205;50.600;4.608;2023-08-12T14:18:22;30.70;99.90
23991;DHT22;12205;50.600;4.608;2023-08-12T14:20:49;31.00;99.90
23991;DHT22;12205;50.600;4.608;2023-08-12T14:23:16;30.70;99.90
23991;DHT22;12205;50.600;4.608;2023-08-12T14:25:43;30.60;99.90
23991;DHT22;12205;50.600;4.608;2023-08-12T14:28:12;30.40;99.90
23991;DHT22;12205;50.600;4.608;2023-08-12T14:30:39;29.90;99.90
23991;DHT22;12205;50.600;4.608;2023-08-12T14:33:06;30.10;99.90
23991;DHT22;12205;50.600;4.608;2023-08-12T14:35:34;30.00;99.90
23991;DHT22;12205;50.600;4.608;2023-08-12T14:38:01;30.00;99.90
23991;DHT22;12205;50.600;4.608;2023-08-12T14:40:28;30.00;99.90
23991;DHT22;12205;50.600;4.608;2023-08-12T14:42:57;30.20;99.90
23991;DHT22;12205;50.600;4.608;2023-08-12T14:45:25;30.30;99.90
23991;DHT22;12205;50.600;4.608;2023-08-12T14:47:52;30.10;99.90
23991;DHT22;12205;50.600;4.608;2023-08-12T14:50:19;29.80;99.90
23991;DHT22;12205;50.600;4.608;2023-08-12T14:52:46;29.80;99.90
23991;DHT22;12205;50.600;4.608;2023-08-12T14:55:13;29.90;99.90
23991;DHT22;12205;50.600;4.608;2023-08-12T14:57:41;30.10;99.90
23991;DHT22;12205;50.600;4.608;2023-08-12T15:00:09;30.50;99.90
23991;DHT22;12205;50.600;4.608;2023-08-12T15:02:39;30.70;99.90
23991;DHT22;12205;50.600;4.608;2023-08-12T15:05:06;30.20;99.90
23991;DHT22;12205;50.600;4.608;2023-08-12T15:07:34;29.70;99.90
23991;DHT22;12205;50.600;4.608;2023-08-12T15:10:01;29.10;99.90
23991;DHT22;12205;50.600;4.608;2023-08-12T15:12:28;28.90;99.90
23991;DHT22;12205;50.600;4.608;2023-08-12T15:14:55;28.90;99.90
23991;DHT22;12205;50.600;4.608;2023-08-12T15:17:23;29.00;99.90
23991;DHT22;12205;50.600;4.608;2023-08-12T15:19:51;29.00;99.90
23991;DHT22;12205;50.600;4.608;2023-08-12T15:22:18;29.10;99.90
23991;DHT22;12205;50.600;4.608;2023-08-12T15:24:45;29.00;99.90
23991;DHT22;12205;50.600;4.608;2023-08-12T15:27:12;29.20;99.90
23991;DHT22;12205;50.600;4.608;2023-08-12T15:29:40;29.20;99.90
23991;DHT22;12205;50.600;4.608;2023-08-12T15:32:07;29.40;99.90
23991;DHT22;12205;50.600;4.608;2023-08-12T15:34:34;29.40;99.90
23991;DHT22;12205;50.600;4.608;2023-08-12T15:37:02;29.10;99.90